PST,Max TemperatureF,Mean TemperatureF,Min TemperatureF,Max Dew PointF,MeanDew PointF,Min DewpointF,Max Humidity, Mean Humidity, Min Humidity, Max Sea Level PressureIn, Mean Sea Level PressureIn, Min Sea Level PressureIn, Max VisibilityMiles, Mean VisibilityMiles, Min VisibilityMiles, Max Wind SpeedMPH, Mean Wind SpeedMPH, Max Gust SpeedMPH,PrecipitationIn, CloudCover, Events, WindDirDegrees
2012-12-1,64,62,60,61,59,57,96,89,81,30.19,30.13,30.09,10,8,2,9,2,,0.09,8,Rain,221
2012-12-2,64,62,59,61,59,57,96,90,78,30.15,30.11,30.08,10,8,2,9,2,17,0.07,7,Rain,221
2012-12-3,66,62,57,61,59,55,100,92,77,30.19,30.14,30.10,10,6,1,9,5,,0.29,6,Rain,159
2012-12-4,63,59,55,57,55,53,94,87,75,30.25,30.19,30.15,10,7,4,8,1,,0.01,4,,249
2012-12-5,62,56,50,57,54,48,100,87,77,30.14,30.08,30.02,7,4,0,8,1,,0.01,3,Fog,207
2012-12-6,64,60,55,56,55,53,94,82,67,30.02,29.95,29.88,6,4,2,9,2,,0.00,5,,186
2012-12-7,63,58,53,56,54,51,97,90,75,29.99,29.94,29.91,5,3,0,7,1,,0.02,3,Fog,231
2012-12-8,66,58,50,55,53,49,100,87,60,30.00,29.94,29.91,4,2,0,8,1,,0.01,5,Fog,300
2012-12-9,64,58,52,54,52,48,89,80,65,30.13,30.04,29.98,5,3,2,6,1,,0.00,3,,21
2012-12-10,68,59,50,56,49,43,90,75,47,30.15,30.09,30.04,10,7,4,6,2,,0.01,0,,216
2012-12-11,70,59,48,56,48,39,90,72,32,30.06,30.00,29.95,10,8,5,6,3,,0.00,2,,111
2012-12-12,61,58,55,54,51,46,94,80,58,29.98,29.90,29.84,10,8,2,10,4,,0.17,8,Rain,177
2012-12-13,60,54,48,54,47,38,94,77,53,29.83,29.79,29.73,10,10,10,10,1,,0.00,4,Rain,229
2012-12-14,57,51,45,44,38,30,86,63,37,30.02,29.90,29.77,10,10,9,10,4,18,0.09,4,Rain,40
2012-12-15,59,52,46,43,39,34,83,60,41,30.09,30.03,29.99,10,10,10,10,3,,0.01,4,,267
2012-12-16,55,53,51,52,49,41,94,85,62,30.19,30.14,30.09,10,6,2,7,3,,0.11,8,Rain,60
2012-12-17,62,58,54,55,51,48,94,81,60,30.19,30.11,30.00,10,9,6,7,2,,0.00,8,Rain,262
2012-12-18,62,55,48,55,47,19,96,77,28,30.07,29.92,29.81,10,7,1,14,3,31,0.45,6,Rain,278
2012-12-19,59,52,46,27,19,13,41,29,17,30.28,30.19,30.07,10,10,10,14,7,22,0.00,0,,336
2012-12-20,68,56,44,37,18,12,44,25,12,30.24,30.16,30.09,10,10,10,8,5,,0.00,0,,20
2012-12-21,61,54,44,41,30,18,68,44,28,30.14,30.08,30.05,10,10,10,7,4,,0.00,0,,353
2012-12-22,60,52,43,52,44,33,94,74,42,30.20,30.15,30.08,10,9,3,9,2,,0.02,5,Rain,317
2012-12-23,62,58,53,52,50,47,94,81,58,30.24,30.17,30.13,10,8,4,8,1,,0.00,7,,216
2012-12-24,62,56,46,55,51,38,96,89,61,30.12,30.07,30.01,10,5,2,8,4,16,0.94,7,Rain,56
2012-12-25,62,54,46,48,43,37,93,70,39,30.11,30.06,30.00,10,10,6,6,3,,0.00,1,,24
2012-12-26,62,56,50,50,46,38,96,80,50,30.01,29.95,29.91,10,6,1,13,3,21,0.31,5,Rain,325
2012-12-27,62,55,48,39,34,30,63,47,32,30.10,30.01,29.96,10,10,10,12,5,24,0.00,0,,339
2012-12-28,63,53,43,42,34,28,65,50,27,30.18,30.12,30.09,10,10,10,7,3,,0.00,0,,17
2012-12-29,54,49,44,45,39,31,89,71,48,30.09,30.04,29.99,10,9,4,12,3,16,0.19,5,Rain,44
2012-12-30,55,48,41,39,35,31,82,59,45,30.07,29.99,29.93,10,10,10,13,4,20,0.00,3,,10
2012-12-31,57,50,44,43,34,29,73,53,36,30.25,30.18,30.07,10,10,10,9,5,22,0.00,0,,73